sensor_id;sensor_type;location;lat;lon;timestamp;temperature;humidity
38237;DHT22;50101;49.438;11.098;2023-01-15T00:01:27;19.20;61.50
38237;DHT22;50101;49.438;11.098;2023-01-15T00:03:56;19.20;61.50
38237;DHT22;50101;49.438;11.098;2023-01-15T00:06:24;19.20;61.50
38237;DHT22;50101;49.438;11.098;2023-01-15T00:08:51;19.20;61.50
38237;DHT22;50101;49.438;11.098;2023-01-15T00:11:18;19.20;61.50
38237;DHT22;50101;49.438;11.098;2023-01-15T00:13:46;19.20;60.80
38237;DHT22;50101;49.438;11.098;2023-01-15T00:16:18;19.20;61.40
38237;DHT22;50101;49.438;11.098;2023-01-15T00:18:50;19.20;61.50
38237;DHT22;50101;49.438;11.098;2023-01-15T00:21:17;19.20;61.50
38237;DHT22;50101;49.438;11.098;2023-01-15T00:23:44;19.20;61.50
38237;DHT22;50101;49.438;11.098;2023-01-15T00:26:30;19.20;61.50
38237;DHT22;50101;49.438;11.098;2023-01-15T00:29:16;19.20;61.40
38237;DHT22;50101;49.438;11.098;2023-01-15T00:34:19;19.20;61.40
38237;DHT22;50101;49.438;11.098;2023-01-15T00:36:46;19.20;61.40
38237;DHT22;50101;49.438;11.098;2023-01-15T00:39:12;19.20;61.40
38237;DHT22;50101;49.438;11.098;2023-01-15T00:41:39;19.20;61.30
38237;DHT22;50101;49.438;11.098;2023-01-15T00:44:06;19.20;61.50
38237;DHT22;50101;49.438;11.098;2023-01-15T00:46:33;19.20;61.40
38237;DHT22;50101;49.438;11.098;2023-01-15T00:49:00;19.20;61.30
38237;DHT22;50101;49.438;11.098;2023-01-15T00:51:26;19.20;61.20
38237;DHT22;50101;49.438;11.098;2023-01-15T00:53:53;19.20;61.20
38237;DHT22;50101;49.438;11.098;2023-01-15T00:56:20;19.20;61.20
38237;DHT22;50101;49.438;11.098;2023-01-15T00:58:46;19.10;61.20
38237;DHT22;50101;49.438;11.098;2023-01-15T01:01:14;19.10;61.10
38237;DHT22;50101;49.438;11.098;2023-01-15T01:03:41;19.10;61.10
38237;DHT22;50101;49.438;11.098;2023-01-15T01:06:10;19.10;61.20
38237;DHT22;50101;49.438;11.098;2023-01-15T01:08:36;19.10;61.10
38237;DHT22;50101;49.438;11.098;2023-01-15T01:11:09;19.10;61.10
38237;DHT22;50101;49.438;11.098;2023-01-15T01:13:37;19.10;61.10
38237;DHT22;50101;49.438;11.098;2023-01-15T01:18:49;19.10;61.10
38237;DHT22;50101;49.438;11.098;2023-01-15T01:21:17;19.10;61.10
38237;DHT22;50101;49.438;11.098;2023-01-15T01:23:44;19.10;60.50
38237;DHT22;50101;49.438;11.098;2023-01-15T01:26:11;19.10;61.10
38237;DHT22;50101;49.438;11.098;2023-01-15T01:28:40;19.10;61.10
38237;DHT22;50101;49.438;11.098;2023-01-15T01:31:08;19.10;61.10
38237;DHT22;50101;49.438;11.098;2023-01-15T01:33:35;19.10;61.10
38237;DHT22;50101;49.438;11.098;2023-01-15T01:36:02;19.10;61.10
38237;DHT22;50101;49.438;11.098;2023-01-15T01:38:29;19.10;61.10
38237;DHT22;50101;49.438;11.098;2023-01-15T01:40:56;19.10;61.10
38237;DHT22;50101;49.438;11.098;2023-01-15T01:43:28;19.00;61.00
38237;DHT22;50101;49.438;11.098;2023-01-15T01:45:55;19.00;61.00
38237;DHT22;50101;49.438;11.098;2023-01-15T01:48:28;19.10;61.10
38237;DHT22;50101;49.438;11.098;2023-01-15T01:50:57;19.10;61.10
38237;DHT22;50101;49.438;11.098;2023-01-15T01:53:28;19.00;61.00
38237;DHT22;50101;49.438;11.098;2023-01-15T01:55:56;19.10;61.10
38237;DHT22;50101;49.438;11.098;2023-01-15T01:58:27;19.10;61.10
38237;DHT22;50101;49.438;11.098;2023-01-15T02:00:56;19.00;61.00
38237;DHT22;50101;49.438;11.098;2023-01-15T02:03:27;19.10;61.10
38237;DHT22;50101;49.438;11.098;2023-01-15T02:05:58;19.00;61.00
38237;DHT22;50101;49.438;11.098;2023-01-15T02:08:26;19.00;61.00
38237;DHT22;50101;49.438;11.098;2023-01-15T02:10:54;19.00;61.00
38237;DHT22;50101;49.438;11.098;2023-01-15T02:16:38;19.00;61.00
38237;DHT22;50101;49.438;11.098;2023-01-15T02:27:05;19.00;61.00
38237;DHT22;50101;49.438;11.098;2023-01-15T02:29:53;19.00;61.00
38237;DHT22;50101;49.438;11.098;2023-01-15T02:32:28;19.00;61.60
38237;DHT22;50101;49.438;11.098;2023-01-15T02:35:04;19.00;61.00
38237;DHT22;50101;49.438;11.098;2023-01-15T02:37:35;19.00;61.00
38237;DHT22;50101;49.438;11.098;2023-01-15T02:40:04;19.00;61.00
38237;DHT22;50101;49.438;11.098;2023-01-15T02:42:33;19.00;61.00
38237;DHT22;50101;49.438;11.098;2023-01-15T02:45:02;19.00;61.00
38237;DHT22;50101;49.438;11.098;2023-01-15T02:47:32;19.00;61.00
38237;DHT22;50101;49.438;11.098;2023-01-15T02:50:02;19.00;61.00
38237;DHT22;50101;49.438;11.098;2023-01-15T02:52:38;18.90;60.90
38237;DHT22;50101;49.438;11.098;2023-01-15T02:55:15;19.00;61.00
38237;DHT22;50101;49.438;11.098;2023-01-15T02:57:45;19.00;61.00
38237;DHT22;50101;49.438;11.098;2023-01-15T03:00:14;18.90;60.90
38237;DHT22;50101;49.438;11.098;2023-01-15T03:02:46;18.90;60.90
38237;DHT22;50101;49.438;11.098;2023-01-15T03:05:26;18.90;60.90
38237;DHT22;50101;49.438;11.098;2023-01-15T03:07:57;19.00;61.00
38237;DHT22;50101;49.438;11.098;2023-01-15T03:10:50;18.90;60.90
38237;DHT22;50101;49.438;11.098;2023-01-15T03:16:11;18.90;60.90
38237;DHT22;50101;49.438;11.098;2023-01-15T03:22:07;18.90;60.90
38237;DHT22;50101;49.438;11.098;2023-01-15T03:24:48;18.90;60.90
38237;DHT22;50101;49.438;11.098;2023-01-15T03:27:15;18.90;60.90
38237;DHT22;50101;49.438;11.098;2023-01-15T03:29:45;18.90;60.90
38237;DHT22;50101;49.438;11.098;2023-01-15T03:32:15;18.90;60.90
38237;DHT22;50101;49.438;11.098;2023-01-15T03:34:46;18.90;60.90
38237;DHT22;50101;49.438;11.098;2023-01-15T03:37:14;18.90;60.90
38237;DHT22;50101;49.438;11.098;2023-01-15T03:39:41;18.90;60.90
38237;DHT22;50101;49.438;11.098;2023-01-15T03:42:38;18.90;60.90
38237;DHT22;50101;49.438;11.098;2023-01-15T03:45:25;18.90;60.90
38237;DHT22;50101;49.438;11.098;2023-01-15T03:48:09;18.90;60.90
38237;DHT22;50101;49.438;11.098;2023-01-15T03:51:04;18.90;60.90
38237;DHT22;50101;49.438;11.098;2023-01-15T03:53:49;18.90;60.90
38237;DHT22;50101;49.438;11.098;2023-01-15T03:56:32;18.90;60.90
38237;DHT22;50101;49.438;11.098;2023-01-15T03:59:21;18.90;60.90
38237;DHT22;50101;49.438;11.098;2023-01-15T04:01:48;18.90;60.90
38237;DHT22;50101;49.438;11.098;2023-01-15T04:04:16;18.80;60.80
38237;DHT22;50101;49.438;11.098;2023-01-15T04:06:44;18.80;60.80
38237;DHT22;50101;49.438;11.098;2023-01-15T04:09:12;18.80;61.50
38237;DHT22;50101;49.438;11.098;2023-01-15T04:11:40;18.80;60.80
38237;DHT22;50101;49.438;11.098;2023-01-15T04:14:08;18.80;60.80
38237;DHT22;50101;49.438;11.098;2023-01-15T04:16:34;18.80;60.70
38237;DHT22;50101;49.438;11.098;2023-01-15T04:19:01;18.80;60.80
38237;DHT22;50101;49.438;11.098;2023-01-15T04:21:28;18.80;60.80
38237;DHT22;50101;49.438;11.098;2023-01-15T04:23:54;18.80;60.80
38237;DHT22;50101;49.438;11.098;2023-01-15T04:26:21;18.80;60.80
38237;DHT22;50101;49.438;11.098;2023-01-15T04:28:48;18.80;60.80
38237;DHT22;50101;49.438;11.098;2023-01-15T04:31:15;18.80;60.80
38237;DHT22;50101;49.438;11.098;2023-01-15T04:33:42;18.80;60.70
38237;DHT22;50101;49.438;11.098;2023-01-15T04:36:09;18.80;60.70
38237;DHT22;50101;49.438;11.098;2023-01-15T04:38:39;18.80;60.80
38237;DHT22;50101;49.438;11.098;2023-01-15T04:41:05;18.80;60.80
38237;DHT22;50101;49.438;11.098;2023-01-15T04:43:51;18.80;60.80
38237;DHT22;50101;49.438;11.098;2023-01-15T04:46:38;18.80;60.80
38237;DHT22;50101;49.438;11.098;2023-01-15T04:49:07;18.80;60.70
38237;DHT22;50101;49.438;11.098;2023-01-15T04:51:34;18.80;60.70
38237;DHT22;50101;49.438;11.098;2023-01-15T04:54:02;18.80;60.80
38237;DHT22;50101;49.438;11.098;2023-01-15T04:56:29;18.80;60.70
38237;DHT22;50101;49.438;11.098;2023-01-15T04:58:58;18.80;60.70
38237;DHT22;50101;49.438;11.098;2023-01-15T05:01:24;18.80;60.80
38237;DHT22;50101;49.438;11.098;2023-01-15T05:03:51;18.80;60.70
38237;DHT22;50101;49.438;11.098;2023-01-15T05:06:18;18.80;60.80
38237;DHT22;50101;49.438;11.098;2023-01-15T05:08:45;18.80;60.70
38237;DHT22;50101;49.438;11.098;2023-01-15T05:11:12;18.80;60.80
38237;DHT22;50101;49.438;11.098;2023-01-15T05:13:38;18.80;60.70
38237;DHT22;50101;49.438;11.098;2023-01-15T05:16:13;18.80;60.70
38237;DHT22;50101;49.438;11.098;2023-01-15T05:18:41;18.80;60.70
38237;DHT22;50101;49.438;11.098;2023-01-15T05:21:20;18.80;60.80
38237;DHT22;50101;49.438;11.098;2023-01-15T05:23:49;18.80;60.70
38237;DHT22;50101;49.438;11.098;2023-01-15T05:26:16;18.80;60.70
38237;DHT22;50101;49.438;11.098;2023-01-15T05:28:43;18.80;61.40
38237;DHT22;50101;49.438;11.098;2023-01-15T05:31:12;18.80;60.70
38237;DHT22;50101;49.438;11.098;2023-01-15T05:33:40;18.80;60.80
38237;DHT22;50101;49.438;11.098;2023-01-15T05:36:13;18.70;60.60
38237;DHT22;50101;49.438;11.098;2023-01-15T05:38:40;18.80;60.70
38237;DHT22;50101;49.438;11.098;2023-01-15T05:41:09;18.80;60.80
38237;DHT22;50101;49.438;11.098;2023-01-15T05:43:55;18.80;60.80
38237;DHT22;50101;49.438;11.098;2023-01-15T05:46:24;18.80;60.80
38237;DHT22;50101;49.438;11.098;2023-01-15T05:48:51;18.70;60.70
38237;DHT22;50101;49.438;11.098;2023-01-15T05:51:18;18.70;60.60
38237;DHT22;50101;49.438;11.098;2023-01-15T05:53:44;18.70;60.70
38237;DHT22;50101;49.438;11.098;2023-01-15T05:56:11;18.70;60.70
38237;DHT22;50101;49.438;11.098;2023-01-15T05:58:38;18.70;60.70
38237;DHT22;50101;49.438;11.098;2023-01-15T06:01:06;18.70;60.70
38237;DHT22;50101;49.438;11.098;2023-01-15T06:03:34;18.70;60.60
38237;DHT22;50101;49.438;11.098;2023-01-15T06:06:01;18.70;60.90
38237;DHT22;50101;49.438;11.098;2023-01-15T06:08:28;18.70;60.70
38237;DHT22;50101;49.438;11.098;2023-01-15T06:10:55;18.70;60.70
38237;DHT22;50101;49.438;11.098;2023-01-15T06:13:22;18.70;60.70
38237;DHT22;50101;49.438;11.098;2023-01-15T06:15:49;18.70;60.70
38237;DHT22;50101;49.438;11.098;2023-01-15T06:18:15;18.70;60.70
38237;DHT22;50101;49.438;11.098;2023-01-15T06:20:42;18.70;60.70
38237;DHT22;50101;49.438;11.098;2023-01-15T06:23:09;18.70;60.10
38237;DHT22;50101;49.438;11.098;2023-01-15T06:25:36;18.70;60.00
38237;DHT22;50101;49.438;11.098;2023-01-15T06:28:04;18.70;60.70
38237;DHT22;50101;49.438;11.098;2023-01-15T06:30:30;18.70;60.60
38237;DHT22;50101;49.438;11.098;2023-01-15T06:32:57;18.70;60.70
38237;DHT22;50101;49.438;11.098;2023-01-15T06:35:24;18.70;60.70
38237;DHT22;50101;49.438;11.098;2023-01-15T06:37:51;18.70;60.70
38237;DHT22;50101;49.438;11.098;2023-01-15T06:40:18;18.70;60.70
38237;DHT22;50101;49.438;11.098;2023-01-15T06:42:44;18.70;60.70
38237;DHT22;50101;49.438;11.098;2023-01-15T06:45:37;18.70;60.70
38237;DHT22;50101;49.438;11.098;2023-01-15T06:48:23;18.70;60.70
38237;DHT22;50101;49.438;11.098;2023-01-15T06:50:50;18.70;60.70
38237;DHT22;50101;49.438;11.098;2023-01-15T06:53:17;18.70;60.60
38237;DHT22;50101;49.438;11.098;2023-01-15T06:55:43;18.70;60.70
38237;DHT22;50101;49.438;11.098;2023-01-15T06:58:10;18.70;60.70
38237;DHT22;50101;49.438;11.098;2023-01-15T07:00:37;18.70;60.90
38237;DHT22;50101;49.438;11.098;2023-01-15T07:03:04;18.70;60.70
38237;DHT22;50101;49.438;11.098;2023-01-15T07:05:30;18.70;60.70
38237;DHT22;50101;49.438;11.098;2023-01-15T07:07:57;18.70;60.70
38237;DHT22;50101;49.438;11.098;2023-01-15T07:10:24;18.70;60.90
38237;DHT22;50101;49.438;11.098;2023-01-15T07:12:51;18.70;60.70
38237;DHT22;50101;49.438;11.098;2023-01-15T07:15:17;18.70;60.70
38237;DHT22;50101;49.438;11.098;2023-01-15T07:17:44;18.70;60.70
38237;DHT22;50101;49.438;11.098;2023-01-15T07:20:11;18.70;60.80
38237;DHT22;50101;49.438;11.098;2023-01-15T07:22:38;18.70;60.70
38237;DHT22;50101;49.438;11.098;2023-01-15T07:25:05;18.70;60.70
38237;DHT22;50101;49.438;11.098;2023-01-15T07:27:32;18.80;60.80
38237;DHT22;50101;49.438;11.098;2023-01-15T07:29:58;18.70;60.70
38237;DHT22;50101;49.438;11.098;2023-01-15T07:32:25;18.70;60.80
38237;DHT22;50101;49.438;11.098;2023-01-15T07:34:51;18.70;60.30
38237;DHT22;50101;49.438;11.098;2023-01-15T07:37:18;18.70;60.90
38237;DHT22;50101;49.438;11.098;2023-01-15T07:39:45;18.70;61.00
38237;DHT22;50101;49.438;11.098;2023-01-15T07:42:11;18.70;61.10
38237;DHT22;50101;49.438;11.098;2023-01-15T07:44:56;18.70;61.10
38237;DHT22;50101;49.438;11.098;2023-01-15T07:47:42;18.70;61.10
38237;DHT22;50101;49.438;11.098;2023-01-15T07:50:27;18.70;61.20
38237;DHT22;50101;49.438;11.098;2023-01-15T07:52:54;18.80;61.30
38237;DHT22;50101;49.438;11.098;2023-01-15T07:55:21;18.80;61.30
38237;DHT22;50101;49.438;11.098;2023-01-15T07:57:48;18.80;61.30
38237;DHT22;50101;49.438;11.098;2023-01-15T08:00:20;18.70;61.20
38237;DHT22;50101;49.438;11.098;2023-01-15T08:02:47;18.80;60.40
38237;DHT22;50101;49.438;11.098;2023-01-15T08:05:16;18.80;61.10
38237;DHT22;50101;49.438;11.098;2023-01-15T08:07:43;18.90;61.10
38237;DHT22;50101;49.438;11.098;2023-01-15T08:10:12;18.90;61.20
38237;DHT22;50101;49.438;11.098;2023-01-15T08:12:39;18.90;61.20
38237;DHT22;50101;49.438;11.098;2023-01-15T08:15:38;19.00;60.60
38237;DHT22;50101;49.438;11.098;2023-01-15T08:18:05;19.00;61.40
38237;DHT22;50101;49.438;11.098;2023-01-15T08:20:33;19.00;61.30
38237;DHT22;50101;49.438;11.098;2023-01-15T08:23:00;19.00;61.40
38237;DHT22;50101;49.438;11.098;2023-01-15T08:25:27;19.00;61.50
38237;DHT22;50101;49.438;11.098;2023-01-15T08:27:54;19.00;61.50
38237;DHT22;50101;49.438;11.098;2023-01-15T08:30:23;19.00;61.70
38237;DHT22;50101;49.438;11.098;2023-01-15T08:32:51;19.00;61.80
38237;DHT22;50101;49.438;11.098;2023-01-15T08:35:20;18.90;61.30
38237;DHT22;50101;49.438;11.098;2023-01-15T08:37:46;18.90;61.90
38237;DHT22;50101;49.438;11.098;2023-01-15T08:40:13;18.90;61.90
38237;DHT22;50101;49.438;11.098;2023-01-15T08:42:40;18.90;61.90
38237;DHT22;50101;49.438;11.098;2023-01-15T08:45:07;18.90;61.90
38237;DHT22;50101;49.438;11.098;2023-01-15T08:47:34;18.90;61.90
38237;DHT22;50101;49.438;11.098;2023-01-15T08:50:03;18.90;61.90
38237;DHT22;50101;49.438;11.098;2023-01-15T08:52:30;18.90;61.90
38237;DHT22;50101;49.438;11.098;2023-01-15T08:54:57;18.90;61.90
38237;DHT22;50101;49.438;11.098;2023-01-15T08:57:23;18.90;62.00
38237;DHT22;50101;49.438;11.098;2023-01-15T08:59:50;18.90;62.10
38237;DHT22;50101;49.438;11.098;2023-01-15T09:02:16;18.90;62.20
38237;DHT22;50101;49.438;11.098;2023-01-15T09:04:43;18.90;62.20
38237;DHT22;50101;49.438;11.098;2023-01-15T09:07:10;18.90;62.20
38237;DHT22;50101;49.438;11.098;2023-01-15T09:09:38;18.90;62.20
38237;DHT22;50101;49.438;11.098;2023-01-15T09:12:05;18.90;62.40
38237;DHT22;50101;49.438;11.098;2023-01-15T09:14:31;19.00;62.50
38237;DHT22;50101;49.438;11.098;2023-01-15T09:17:18;19.00;62.60
38237;DHT22;50101;49.438;11.098;2023-01-15T09:19:45;19.00;62.60
38237;DHT22;50101;49.438;11.098;2023-01-15T09:22:11;19.00;62.60
38237;DHT22;50101;49.438;11.098;2023-01-15T09:24:38;19.00;62.60
38237;DHT22;50101;49.438;11.098;2023-01-15T09:27:04;19.00;62.50
38237;DHT22;50101;49.438;11.098;2023-01-15T09:29:31;19.00;62.60
38237;DHT22;50101;49.438;11.098;2023-01-15T09:31:58;19.00;62.60
38237;DHT22;50101;49.438;11.098;2023-01-15T09:34:24;19.00;62.60
38237;DHT22;50101;49.438;11.098;2023-01-15T09:36:51;19.00;62.60
38237;DHT22;50101;49.438;11.098;2023-01-15T09:39:17;19.00;62.60
38237;DHT22;50101;49.438;11.098;2023-01-15T09:45:08;19.00;62.60
38237;DHT22;50101;49.438;11.098;2023-01-15T09:53:35;19.10;62.70
38237;DHT22;50101;49.438;11.098;2023-01-15T09:56:04;19.10;62.40
38237;DHT22;50101;49.438;11.098;2023-01-15T09:58:40;19.20;62.50
38237;DHT22;50101;49.438;11.098;2023-01-15T10:01:14;19.20;62.50
38237;DHT22;50101;49.438;11.098;2023-01-15T10:03:44;19.10;62.50
38237;DHT22;50101;49.438;11.098;2023-01-15T10:06:34;19.10;62.30
38237;DHT22;50101;49.438;11.098;2023-01-15T10:09:13;19.10;62.50
38237;DHT22;50101;49.438;11.098;2023-01-15T10:11:46;19.10;62.50
38237;DHT22;50101;49.438;11.098;2023-01-15T10:14:48;19.10;62.60
38237;DHT22;50101;49.438;11.098;2023-01-15T10:17:23;19.10;62.60
38237;DHT22;50101;49.438;11.098;2023-01-15T10:19:51;19.10;62.50
38237;DHT22;50101;49.438;11.098;2023-01-15T10:22:41;19.10;62.50
38237;DHT22;50101;49.438;11.098;2023-01-15T10:25:15;19.10;62.50
38237;DHT22;50101;49.438;11.098;2023-01-15T10:27:46;19.10;62.50
38237;DHT22;50101;49.438;11.098;2023-01-15T10:30:40;19.10;62.40
38237;DHT22;50101;49.438;11.098;2023-01-15T10:33:28;19.10;62.40
38237;DHT22;50101;49.438;11.098;2023-01-15T10:36:01;19.10;62.30
38237;DHT22;50101;49.438;11.098;2023-01-15T10:38:48;19.10;62.20
38237;DHT22;50101;49.438;11.098;2023-01-15T10:41:30;19.10;62.30
38237;DHT22;50101;49.438;11.098;2023-01-15T10:44:11;19.10;62.30
38237;DHT22;50101;49.438;11.098;2023-01-15T10:46:44;19.10;62.10
38237;DHT22;50101;49.438;11.098;2023-01-15T10:49:16;19.10;62.20
38237;DHT22;50101;49.438;11.098;2023-01-15T10:57:11;19.10;62.20
38237;DHT22;50101;49.438;11.098;2023-01-15T10:59:56;19.10;62.10
38237;DHT22;50101;49.438;11.098;2023-01-15T11:05:00;19.10;62.30
38237;DHT22;50101;49.438;11.098;2023-01-15T11:07:37;19.00;62.20
38237;DHT22;50101;49.438;11.098;2023-01-15T11:10:26;19.10;62.30
38237;DHT22;50101;49.438;11.098;2023-01-15T11:15:57;19.10;62.30
38237;DHT22;50101;49.438;11.098;2023-01-15T11:18:44;19.00;61.60
38237;DHT22;50101;49.438;11.098;2023-01-15T11:21:30;19.10;62.40
38237;DHT22;50101;49.438;11.098;2023-01-15T11:23:58;19.10;62.30
38237;DHT22;50101;49.438;11.098;2023-01-15T11:26:28;19.10;62.30
38237;DHT22;50101;49.438;11.098;2023-01-15T11:28:57;19.10;62.30
38237;DHT22;50101;49.438;11.098;2023-01-15T11:31:38;19.10;62.20
38237;DHT22;50101;49.438;11.098;2023-01-15T11:34:14;19.10;62.10
38237;DHT22;50101;49.438;11.098;2023-01-15T11:36:45;19.10;62.10
38237;DHT22;50101;49.438;11.098;2023-01-15T11:39:22;19.00;62.20
38237;DHT22;50101;49.438;11.098;2023-01-15T11:41:57;19.00;62.40
38237;DHT22;50101;49.438;11.098;2023-01-15T11:44:50;19.00;62.40
38237;DHT22;50101;49.438;11.098;2023-01-15T11:47:36;19.00;62.60
38237;DHT22;50101;49.438;11.098;2023-01-15T11:50:21;19.10;62.60
38237;DHT22;50101;49.438;11.098;2023-01-15T11:53:14;19.10;62.50
38237;DHT22;50101;49.438;11.098;2023-01-15T11:56:00;19.00;62.50
38237;DHT22;50101;49.438;11.098;2023-01-15T11:58:32;19.00;62.50
38237;DHT22;50101;49.438;11.098;2023-01-15T12:01:00;19.00;62.60
38237;DHT22;50101;49.438;11.098;2023-01-15T12:03:28;19.00;62.60
38237;DHT22;50101;49.438;11.098;2023-01-15T12:06:03;19.00;62.80
38237;DHT22;50101;49.438;11.098;2023-01-15T12:08:53;19.00;62.80
38237;DHT22;50101;49.438;11.098;2023-01-15T12:20:47;18.90;62.20
38237;DHT22;50101;49.438;11.098;2023-01-15T12:23:36;18.80;62.20
38237;DHT22;50101;49.438;11.098;2023-01-15T12:26:37;18.90;62.50
38237;DHT22;50101;49.438;11.098;2023-01-15T12:29:23;18.80;61.90
38237;DHT22;50101;49.438;11.098;2023-01-15T12:35:05;19.00;62.00
38237;DHT22;50101;49.438;11.098;2023-01-15T12:37:42;19.10;61.70
38237;DHT22;50101;49.438;11.098;2023-01-15T12:40:21;19.10;61.10
38237;DHT22;50101;49.438;11.098;2023-01-15T12:42:52;19.20;61.20
38237;DHT22;50101;49.438;11.098;2023-01-15T12:45:44;19.20;61.20
38237;DHT22;50101;49.438;11.098;2023-01-15T12:48:20;19.20;61.30
38237;DHT22;50101;49.438;11.098;2023-01-15T12:50:55;19.20;61.20
38237;DHT22;50101;49.438;11.098;2023-01-15T12:53:48;19.10;61.00
38237;DHT22;50101;49.438;11.098;2023-01-15T13:10:23;19.10;61.60
38237;DHT22;50101;49.438;11.098;2023-01-15T13:12:58;19.10;61.90
38237;DHT22;50101;49.438;11.098;2023-01-15T13:15:30;19.10;62.10
38237;DHT22;50101;49.438;11.098;2023-01-15T13:18:24;19.10;61.60
38237;DHT22;50101;49.438;11.098;2023-01-15T13:20:52;19.10;62.30
38237;DHT22;50101;49.438;11.098;2023-01-15T13:34:45;19.00;63.50
38237;DHT22;50101;49.438;11.098;2023-01-15T13:37:25;19.00;63.30
38237;DHT22;50101;49.438;11.098;2023-01-15T13:40:21;19.00;63.40
38237;DHT22;50101;49.438;11.098;2023-01-15T13:42:49;19.00;63.60
38237;DHT22;50101;49.438;11.098;2023-01-15T13:47:48;19.10;62.60
38237;DHT22;50101;49.438;11.098;2023-01-15T13:50:30;19.10;63.40
38237;DHT22;50101;49.438;11.098;2023-01-15T13:53:06;19.20;63.40
38237;DHT22;50101;49.438;11.098;2023-01-15T13:55:40;19.10;63.30
38237;DHT22;50101;49.438;11.098;2023-01-15T13:58:22;19.10;63.30
38237;DHT22;50101;49.438;11.098;2023-01-15T14:01:03;19.20;63.40
38237;DHT22;50101;49.438;11.098;2023-01-15T14:03:36;19.20;63.40
38237;DHT22;50101;49.438;11.098;2023-01-15T14:06:06;19.20;63.40
38237;DHT22;50101;49.438;11.098;2023-01-15T14:08:44;19.20;63.60
38237;DHT22;50101;49.438;11.098;2023-01-15T14:11:37;19.20;63.80
38237;DHT22;50101;49.438;11.098;2023-01-15T14:17:36;19.30;63.70
38237;DHT22;50101;49.438;11.098;2023-01-15T14:20:02;19.20;63.80
38237;DHT22;50101;49.438;11.098;2023-01-15T14:22:50;19.30;63.90
38237;DHT22;50101;49.438;11.098;2023-01-15T14:31:32;19.30;64.10
38237;DHT22;50101;49.438;11.098;2023-01-15T14:39:45;19.30;64.20
38237;DHT22;50101;49.438;11.098;2023-01-15T14:47:47;19.20;63.70
38237;DHT22;50101;49.438;11.098;2023-01-15T14:50:25;19.20;64.40
38237;DHT22;50101;49.438;11.098;2023-01-15T14:52:58;19.30;64.10
38237;DHT22;50101;49.438;11.098;2023-01-15T14:55:49;19.30;64.20
38237;DHT22;50101;49.438;11.098;2023-01-15T14:58:27;19.20;64.20
38237;DHT22;50101;49.438;11.098;2023-01-15T15:01:03;19.20;64.10
38237;DHT22;50101;49.438;11.098;2023-01-15T15:03:43;19.20;63.70
38237;DHT22;50101;49.438;11.098;2023-01-15T15:06:11;19.20;63.80
38237;DHT22;50101;49.438;11.098;2023-01-15T15:08:40;19.20;64.00
38237;DHT22;50101;49.438;11.098;2023-01-15T15:11:17;19.20;64.80
38237;DHT22;50101;49.438;11.098;2023-01-15T15:14:06;19.10;64.10
38237;DHT22;50101;49.438;11.098;2023-01-15T15:16:41;19.10;63.50
38237;DHT22;50101;49.438;11.098;2023-01-15T15:19:46;19.10;64.10
38237;DHT22;50101;49.438;11.098;2023-01-15T15:22:16;19.10;64.10
38237;DHT22;50101;49.438;11.098;2023-01-15T15:24:47;19.10;64.20
38237;DHT22;50101;49.438;11.098;2023-01-15T15:27:20;19.00;64.10
38237;DHT22;50101;49.438;11.098;2023-01-15T15:29:47;19.00;64.10
38237;DHT22;50101;49.438;11.098;2023-01-15T15:32:22;19.00;64.10
38237;DHT22;50101;49.438;11.098;2023-01-15T15:34:51;19.00;64.10
38237;DHT22;50101;49.438;11.098;2023-01-15T15:37:22;19.00;64.10
38237;DHT22;50101;49.438;11.098;2023-01-15T15:42:36;19.00;64.10
38237;DHT22;50101;49.438;11.098;2023-01-15T15:45:25;19.00;64.10
38237;DHT22;50101;49.438;11.098;2023-01-15T15:48:15;19.00;64.10
38237;DHT22;50101;49.438;11.098;2023-01-15T15:51:01;19.00;64.10
38237;DHT22;50101;49.438;11.098;2023-01-15T15:53:28;19.00;64.10
38237;DHT22;50101;49.438;11.098;2023-01-15T15:55:58;19.00;64.10
38237;DHT22;50101;49.438;11.098;2023-01-15T15:58:33;19.00;64.10
38237;DHT22;50101;49.438;11.098;2023-01-15T16:01:01;18.90;64.00
38237;DHT22;50101;49.438;11.098;2023-01-15T16:03:30;19.00;64.10
38237;DHT22;50101;49.438;11.098;2023-01-15T16:06:04;18.90;64.00
38237;DHT22;50101;49.438;11.098;2023-01-15T16:08:33;18.90;64.10
38237;DHT22;50101;49.438;11.098;2023-01-15T16:11:04;18.90;64.00
38237;DHT22;50101;49.438;11.098;2023-01-15T16:13:43;19.00;64.20
38237;DHT22;50101;49.438;11.098;2023-01-15T16:16:12;18.90;64.00
38237;DHT22;50101;49.438;11.098;2023-01-15T16:18:44;19.00;64.10
38237;DHT22;50101;49.438;11.098;2023-01-15T16:21:18;19.00;64.10
38237;DHT22;50101;49.438;11.098;2023-01-15T16:23:56;19.00;63.90
38237;DHT22;50101;49.438;11.098;2023-01-15T16:29:03;19.10;63.30
38237;DHT22;50101;49.438;11.098;2023-01-15T16:31:35;19.10;63.90
38237;DHT22;50101;49.438;11.098;2023-01-15T16:34:03;19.00;63.90
38237;DHT22;50101;49.438;11.098;2023-01-15T16:36:38;19.00;64.10
38237;DHT22;50101;49.438;11.098;2023-01-15T16:39:06;19.00;64.10
38237;DHT22;50101;49.438;11.098;2023-01-15T16:41:41;19.10;64.20
38237;DHT22;50101;49.438;11.098;2023-01-15T16:44:23;19.10;64.30
38237;DHT22;50101;49.438;11.098;2023-01-15T16:46:54;19.10;64.40
38237;DHT22;50101;49.438;11.098;2023-01-15T16:51:49;19.10;64.20
38237;DHT22;50101;49.438;11.098;2023-01-15T16:57:25;19.20;64.90
38237;DHT22;50101;49.438;11.098;2023-01-15T16:59:55;19.10;64.80
38237;DHT22;50101;49.438;11.098;2023-01-15T17:02:22;19.10;64.90
38237;DHT22;50101;49.438;11.098;2023-01-15T17:04:50;19.10;65.10
38237;DHT22;50101;49.438;11.098;2023-01-15T17:07:21;19.10;64.50
38237;DHT22;50101;49.438;11.098;2023-01-15T17:09:54;19.10;65.20
38237;DHT22;50101;49.438;11.098;2023-01-15T17:12:31;19.10;65.20
38237;DHT22;50101;49.438;11.098;2023-01-15T17:17:51;19.10;65.30
38237;DHT22;50101;49.438;11.098;2023-01-15T17:20:20;19.00;65.20
38237;DHT22;50101;49.438;11.098;2023-01-15T17:22:48;19.00;65.10
38237;DHT22;50101;49.438;11.098;2023-01-15T17:25:26;19.00;65.10
38237;DHT22;50101;49.438;11.098;2023-01-15T17:27:57;19.10;65.20
38237;DHT22;50101;49.438;11.098;2023-01-15T17:30:26;19.00;65.10
38237;DHT22;50101;49.438;11.098;2023-01-15T17:32:57;19.00;65.10
38237;DHT22;50101;49.438;11.098;2023-01-15T17:35:32;19.00;65.10
38237;DHT22;50101;49.438;11.098;2023-01-15T17:37:59;19.00;65.20
38237;DHT22;50101;49.438;11.098;2023-01-15T17:40:26;19.10;65.10
38237;DHT22;50101;49.438;11.098;2023-01-15T17:42:52;19.00;64.90
38237;DHT22;50101;49.438;11.098;2023-01-15T17:45:28;19.10;65.00